createdAt,value
2023-02-26T00:00:15.000Z,2.1
2023-02-26T00:01:31.000Z,2.2
2023-02-26T00:02:47.000Z,2.3
2023-02-26T00:04:03.000Z,2.4
2023-02-26T00:05:20.000Z,2.4
2023-02-26T00:06:36.000Z,2.3
2023-02-26T00:07:52.000Z,2.2
2023-02-26T00:09:07.000Z,2.2
2023-02-26T00:10:23.000Z,2.1
2023-02-26T00:11:40.000Z,2.2
2023-02-26T00:12:56.000Z,2.1
2023-02-26T00:14:12.000Z,2.1
2023-02-26T00:15:28.000Z,2
2023-02-26T00:16:44.000Z,2.2
2023-02-26T00:18:00.000Z,2.3
2023-02-26T00:19:17.000Z,2.3
2023-02-26T00:20:33.000Z,2.3
2023-02-26T00:21:49.000Z,2.2
2023-02-26T00:23:05.000Z,2.2
2023-02-26T00:24:21.000Z,2.1
2023-02-26T00:25:37.000Z,2
2023-02-26T00:26:53.000Z,2
2023-02-26T00:28:09.000Z,2
2023-02-26T00:29:25.000Z,1.9
2023-02-26T00:30:41.000Z,2.1
2023-02-26T00:31:58.000Z,1.9
2023-02-26T00:33:14.000Z,2.3
2023-02-26T00:34:30.000Z,2.1
2023-02-26T00:35:46.000Z,2.1
2023-02-26T00:37:02.000Z,2
2023-02-26T00:38:19.000Z,2
2023-02-26T00:39:35.000Z,2
2023-02-26T00:40:51.000Z,2.1
2023-02-26T00:42:06.000Z,2.1
2023-02-26T00:43:22.000Z,2.2
2023-02-26T00:44:39.000Z,2.1
2023-02-26T00:45:55.000Z,2.1
2023-02-26T00:47:11.000Z,2.2
2023-02-26T00:48:27.000Z,2.1
2023-02-26T00:49:43.000Z,1.9
2023-02-26T00:50:59.000Z,2
2023-02-26T00:52:16.000Z,2.1
2023-02-26T00:53:32.000Z,2.1
2023-02-26T00:54:48.000Z,1.9
2023-02-26T00:56:04.000Z,2.1
2023-02-26T00:57:20.000Z,2
2023-02-26T00:58:36.000Z,1.9
2023-02-26T00:59:52.000Z,2.1
2023-02-26T01:01:08.000Z,1.9
2023-02-26T01:02:24.000Z,1.9
2023-02-26T01:03:40.000Z,1.9
2023-02-26T01:04:57.000Z,2
2023-02-26T01:06:13.000Z,2
2023-02-26T01:07:29.000Z,1.9
2023-02-26T01:08:45.000Z,1.9
2023-02-26T01:10:01.000Z,1.9
2023-02-26T01:11:18.000Z,1.8
2023-02-26T01:12:34.000Z,1.8
2023-02-26T01:13:50.000Z,1.8
2023-02-26T01:15:05.000Z,1.9
2023-02-26T01:16:21.000Z,1.8
2023-02-26T01:17:37.000Z,1.8
2023-02-26T01:18:54.000Z,1.7
2023-02-26T01:20:10.000Z,1.6
2023-02-26T01:21:26.000Z,1.8
2023-02-26T01:22:42.000Z,1.9
2023-02-26T01:23:58.000Z,1.9
2023-02-26T01:25:15.000Z,1.8
2023-02-26T01:26:31.000Z,1.7
2023-02-26T01:27:47.000Z,1.6
2023-02-26T01:29:03.000Z,1.7
2023-02-26T01:30:19.000Z,1.7
2023-02-26T01:32:51.000Z,1.8
2023-02-26T01:34:07.000Z,1.7
2023-02-26T01:35:23.000Z,1.6
2023-02-26T01:36:39.000Z,1.7
2023-02-26T01:37:56.000Z,1.7
2023-02-26T01:39:12.000Z,1.7
2023-02-26T01:40:28.000Z,1.6
2023-02-26T01:41:44.000Z,1.7
2023-02-26T01:43:00.000Z,1.8
2023-02-26T01:44:16.000Z,1.6
2023-02-26T01:45:33.000Z,1.6
2023-02-26T01:46:49.000Z,1.6
2023-02-26T01:48:04.000Z,1.5
2023-02-26T01:49:20.000Z,1.5
2023-02-26T01:50:36.000Z,1.6
2023-02-26T01:51:53.000Z,1.7
2023-02-26T01:53:09.000Z,1.5
2023-02-26T01:54:25.000Z,1.4
2023-02-26T01:55:41.000Z,1.5
2023-02-26T01:56:57.000Z,1.4
2023-02-26T01:58:14.000Z,1.3
2023-02-26T01:59:30.000Z,1.5
2023-02-26T02:00:46.000Z,1.4
2023-02-26T02:02:02.000Z,1.3
2023-02-26T02:03:18.000Z,1.3
2023-02-26T02:04:34.000Z,1.5
2023-02-26T02:05:50.000Z,1.4
2023-02-26T02:07:06.000Z,1.3
2023-02-26T02:08:22.000Z,1.3
2023-02-26T02:09:38.000Z,1.3
2023-02-26T02:10:54.000Z,1.5
2023-02-26T02:12:11.000Z,1.4
2023-02-26T02:13:27.000Z,1.4
2023-02-26T02:14:43.000Z,1.3
2023-02-26T02:15:59.000Z,1.4
2023-02-26T02:17:15.000Z,1.4
2023-02-26T02:18:32.000Z,1.4
2023-02-26T02:19:48.000Z,1.4
2023-02-26T02:21:03.000Z,1.3
2023-02-26T02:22:19.000Z,1.4
2023-02-26T02:23:35.000Z,1.3
2023-02-26T02:24:52.000Z,1.3
2023-02-26T02:26:08.000Z,1.3
2023-02-26T02:27:24.000Z,1.3
2023-02-26T02:28:40.000Z,1.2
2023-02-26T02:29:56.000Z,1.3
2023-02-26T02:31:13.000Z,1.2
2023-02-26T02:32:29.000Z,1.2
2023-02-26T02:33:45.000Z,1.3
2023-02-26T02:35:01.000Z,1.2
2023-02-26T02:36:17.000Z,1.3
2023-02-26T02:37:33.000Z,1.1
2023-02-26T02:38:49.000Z,1.1
2023-02-26T02:40:05.000Z,1.1
2023-02-26T02:41:21.000Z,1.1
2023-02-26T02:42:37.000Z,1.2
2023-02-26T02:43:53.000Z,1.2
2023-02-26T02:45:10.000Z,1.2
2023-02-26T02:46:26.000Z,1.2
2023-02-26T02:47:42.000Z,1.1
2023-02-26T02:48:58.000Z,1.2
2023-02-26T02:50:14.000Z,1.1
2023-02-26T02:51:31.000Z,1.1
2023-02-26T02:52:47.000Z,1.1
2023-02-26T02:54:03.000Z,1
2023-02-26T02:55:18.000Z,1
2023-02-26T02:56:34.000Z,1
2023-02-26T02:57:51.000Z,0.9
2023-02-26T02:59:07.000Z,1
2023-02-26T03:00:23.000Z,1
2023-02-26T03:01:39.000Z,1
2023-02-26T03:02:55.000Z,1.1
2023-02-26T03:04:11.000Z,1.1
2023-02-26T03:05:28.000Z,0.9
2023-02-26T03:06:44.000Z,1
2023-02-26T03:08:00.000Z,1
2023-02-26T03:09:16.663Z,1.1
2023-02-26T03:10:32.000Z,0.9
2023-02-26T03:11:48.000Z,0.9
2023-02-26T03:13:04.000Z,1
2023-02-26T03:14:20.000Z,1
2023-02-26T03:15:36.000Z,1
2023-02-26T03:16:52.000Z,0.9
2023-02-26T03:18:09.000Z,1
2023-02-26T03:19:25.000Z,1
2023-02-26T03:20:41.000Z,1
2023-02-26T03:21:57.000Z,1.1
2023-02-26T03:23:13.000Z,1
2023-02-26T03:24:30.000Z,1
2023-02-26T03:25:46.000Z,1
2023-02-26T03:27:02.000Z,1
2023-02-26T03:28:17.000Z,1
2023-02-26T03:29:33.000Z,1.1
2023-02-26T03:30:49.000Z,1
2023-02-26T03:32:06.000Z,1
2023-02-26T03:33:22.000Z,1
2023-02-26T03:34:38.000Z,1
2023-02-26T03:35:54.000Z,1.1
2023-02-26T03:37:10.000Z,1.2
2023-02-26T03:38:27.000Z,1.3
2023-02-26T03:39:43.000Z,1
2023-02-26T03:40:59.000Z,1
2023-02-26T03:42:15.000Z,1.1
2023-02-26T03:43:31.000Z,1.2
2023-02-26T03:44:47.000Z,1.1
2023-02-26T03:46:03.000Z,1.1
2023-02-26T03:47:19.000Z,1.2
2023-02-26T03:48:35.000Z,1.2
2023-02-26T03:49:51.000Z,1.3
2023-02-26T03:51:08.000Z,1
2023-02-26T03:52:24.000Z,1
2023-02-26T03:53:40.000Z,1
2023-02-26T03:54:56.000Z,1
2023-02-26T03:56:12.000Z,1
2023-02-26T03:57:28.000Z,1
2023-02-26T03:58:45.000Z,1.1
2023-02-26T04:00:01.000Z,0.9
2023-02-26T04:01:16.000Z,0.9
2023-02-26T04:02:32.000Z,1
2023-02-26T04:03:48.000Z,1
2023-02-26T04:05:05.000Z,1
2023-02-26T04:06:21.000Z,0.9
2023-02-26T04:07:36.000Z,1
2023-02-26T04:08:52.000Z,1.1
2023-02-26T04:10:08.000Z,1
2023-02-26T04:11:25.000Z,1
2023-02-26T04:12:41.000Z,1
2023-02-26T04:13:57.000Z,0.9
2023-02-26T04:15:13.000Z,0.9
2023-02-26T04:16:29.000Z,1
2023-02-26T04:17:46.000Z,1.1
2023-02-26T04:19:02.000Z,0.9
2023-02-26T04:20:18.000Z,1.1
2023-02-26T04:21:34.000Z,1
2023-02-26T04:22:50.000Z,1
2023-02-26T04:24:05.000Z,1
2023-02-26T04:25:22.114Z,0.9
2023-02-26T04:26:38.000Z,0.8
2023-02-26T04:27:54.000Z,0.8
2023-02-26T04:29:10.000Z,0.7
2023-02-26T04:30:26.000Z,0.8
2023-02-26T04:31:43.000Z,0.8
2023-02-26T04:32:59.000Z,0.7
2023-02-26T04:34:15.000Z,0.9
2023-02-26T04:35:31.000Z,0.9
2023-02-26T04:36:47.000Z,0.9
2023-02-26T04:38:04.000Z,0.7
2023-02-26T04:39:20.000Z,0.7
2023-02-26T04:40:35.000Z,0.8
2023-02-26T04:41:51.000Z,0.7
2023-02-26T04:43:07.000Z,0.8
2023-02-26T04:44:24.000Z,0.8
2023-02-26T04:45:40.000Z,1
2023-02-26T04:46:56.000Z,0.8
2023-02-26T04:48:12.000Z,0.7
2023-02-26T04:49:28.000Z,0.8
2023-02-26T04:50:45.000Z,0.9
2023-02-26T04:52:01.000Z,0.9
2023-02-26T04:53:17.000Z,0.8
2023-02-26T04:54:33.000Z,0.6
2023-02-26T04:55:49.000Z,0.8
2023-02-26T04:57:04.000Z,0.8
2023-02-26T04:58:21.000Z,1
2023-02-26T04:59:37.000Z,0.9
2023-02-26T05:00:53.000Z,0.7
2023-02-26T05:02:09.000Z,0.8
2023-02-26T05:03:25.000Z,0.9
2023-02-26T05:04:42.000Z,1
2023-02-26T05:05:58.000Z,0.9
2023-02-26T05:07:14.000Z,0.8
2023-02-26T05:08:30.000Z,0.9
2023-02-26T05:09:46.000Z,0.9
2023-02-26T05:11:03.000Z,0.9
2023-02-26T05:12:19.000Z,0.9
2023-02-26T05:13:34.000Z,0.8
2023-02-26T05:14:50.000Z,0.7
2023-02-26T05:16:06.000Z,0.8
2023-02-26T05:17:23.000Z,0.9
2023-02-26T05:18:39.000Z,1
2023-02-26T05:19:55.000Z,1
2023-02-26T05:21:11.000Z,0.8
2023-02-26T05:22:27.000Z,0.8
2023-02-26T05:23:44.000Z,0.8
2023-02-26T05:25:00.000Z,0.7
2023-02-26T05:26:16.000Z,0.8
2023-02-26T05:27:32.000Z,0.7
2023-02-26T05:28:48.000Z,0.7
2023-02-26T05:30:03.000Z,0.6
2023-02-26T05:31:20.000Z,0.7
2023-02-26T05:32:36.000Z,0.9
2023-02-26T05:33:52.000Z,0.7
2023-02-26T05:35:08.000Z,0.8
2023-02-26T05:36:24.000Z,0.6
2023-02-26T05:37:41.000Z,0.6
2023-02-26T05:38:57.000Z,0.6
2023-02-26T05:40:13.000Z,0.9
2023-02-26T05:41:29.000Z,0.5
2023-02-26T05:42:45.000Z,0.6
2023-02-26T05:44:02.000Z,0.6
2023-02-26T05:45:18.000Z,0.5
2023-02-26T05:46:33.000Z,0.7
2023-02-26T05:47:49.000Z,0.6
2023-02-26T05:49:05.000Z,0.6
2023-02-26T05:50:22.000Z,0.6
2023-02-26T05:51:38.000Z,0.7
2023-02-26T05:52:54.000Z,0.7
2023-02-26T05:54:10.000Z,0.6
2023-02-26T05:55:26.000Z,0.7
2023-02-26T05:56:43.000Z,0.5
2023-02-26T05:57:59.000Z,0.6
2023-02-26T05:59:15.000Z,0.7
2023-02-26T06:00:31.000Z,0.5
2023-02-26T06:01:47.000Z,0.5
2023-02-26T06:03:02.000Z,0.5
2023-02-26T06:04:19.000Z,0.5
2023-02-26T06:05:35.000Z,0.6
2023-02-26T06:06:51.000Z,0.7
2023-02-26T06:08:07.000Z,0.5
2023-02-26T06:09:23.000Z,0.4
2023-02-26T06:10:40.000Z,0.5
2023-02-26T06:11:56.000Z,0.5
2023-02-26T06:13:12.000Z,0.4
2023-02-26T06:14:28.000Z,0.6
2023-02-26T06:15:44.000Z,0.5
2023-02-26T06:17:01.000Z,0.7
2023-02-26T06:18:17.000Z,0.4
2023-02-26T06:19:32.000Z,0.5
2023-02-26T06:20:48.000Z,0.7
2023-02-26T06:22:04.000Z,0.7
2023-02-26T06:23:21.000Z,0.5
2023-02-26T06:24:37.000Z,0.5
2023-02-26T06:25:53.000Z,0.5
2023-02-26T06:27:09.000Z,0.6
2023-02-26T06:28:25.000Z,0.6
2023-02-26T06:29:42.000Z,0.6
2023-02-26T06:30:58.000Z,0.5
2023-02-26T06:32:14.000Z,0.7
2023-02-26T06:33:30.000Z,0.6
2023-02-26T06:34:46.000Z,0.7
2023-02-26T06:36:01.000Z,0.5
2023-02-26T06:37:18.000Z,0.6
2023-02-26T06:38:34.000Z,0.6
2023-02-26T06:39:50.000Z,0.6
2023-02-26T06:41:06.000Z,0.7
2023-02-26T06:42:22.000Z,0.6
2023-02-26T06:43:39.000Z,0.7
2023-02-26T06:44:55.000Z,0.7
2023-02-26T06:46:11.000Z,0.8
2023-02-26T06:47:27.000Z,0.7
2023-02-26T06:48:43.000Z,0.9
2023-02-26T06:50:00.000Z,0.9
2023-02-26T06:51:16.000Z,0.9
2023-02-26T06:52:31.000Z,1
2023-02-26T06:53:47.000Z,0.8
2023-02-26T06:55:03.000Z,0.9
2023-02-26T06:56:20.000Z,0.8
2023-02-26T06:57:36.000Z,0.7
2023-02-26T06:58:52.000Z,0.7
2023-02-26T07:00:08.000Z,0.6
2023-02-26T07:01:24.000Z,0.7
2023-02-26T07:02:41.000Z,0.6
2023-02-26T07:03:57.000Z,0.7
2023-02-26T07:05:13.000Z,0.7
2023-02-26T07:06:29.000Z,0.9
2023-02-26T07:07:45.000Z,0.9
2023-02-26T07:09:01.000Z,0.9
2023-02-26T07:10:17.000Z,1.2
2023-02-26T07:11:33.000Z,1.5
2023-02-26T07:12:49.000Z,1.3
2023-02-26T07:14:05.000Z,1.5
2023-02-26T07:15:21.000Z,1.6
2023-02-26T07:16:38.000Z,1.6
2023-02-26T07:17:54.000Z,1.3
2023-02-26T07:19:10.000Z,1.5
2023-02-26T07:20:26.000Z,1.2
2023-02-26T07:21:42.000Z,1.3
2023-02-26T07:22:59.000Z,1.2
2023-02-26T07:24:15.000Z,1.1
2023-02-26T07:25:31.000Z,0.6
2023-02-26T07:26:46.000Z,0.8
2023-02-26T07:28:02.000Z,0.9
2023-02-26T07:29:19.000Z,0.8
2023-02-26T07:30:35.000Z,1
2023-02-26T07:31:51.000Z,1
2023-02-26T07:33:07.000Z,1
2023-02-26T07:34:23.000Z,1.2
2023-02-26T07:35:40.000Z,1.1
2023-02-26T07:36:56.000Z,1
2023-02-26T07:38:12.000Z,0.9
2023-02-26T07:39:28.000Z,1
2023-02-26T07:40:44.000Z,1.2
2023-02-26T07:42:00.000Z,1.2
2023-02-26T07:43:16.000Z,1.3
2023-02-26T07:44:32.000Z,1.1
2023-02-26T07:45:48.000Z,1.1
2023-02-26T07:47:04.000Z,1.5
2023-02-26T07:48:20.000Z,1.3
2023-02-26T07:49:37.000Z,1.4
2023-02-26T07:50:53.000Z,1.4
2023-02-26T07:52:09.000Z,1.6
2023-02-26T07:53:25.000Z,1.6
2023-02-26T07:54:41.000Z,1.9
2023-02-26T07:55:58.000Z,1.7
2023-02-26T07:57:14.000Z,1.6
2023-02-26T07:58:30.000Z,1.4
2023-02-26T07:59:45.000Z,1.5
2023-02-26T08:01:01.000Z,1.5
2023-02-26T08:02:18.000Z,1.6
2023-02-26T08:03:34.000Z,1.7
2023-02-26T08:04:50.000Z,1.8
2023-02-26T08:06:06.000Z,1.9
2023-02-26T08:07:22.000Z,1.8
2023-02-26T08:08:39.000Z,1.6
2023-02-26T08:09:55.000Z,1.6
2023-02-26T08:11:11.000Z,1.9
2023-02-26T08:12:27.000Z,1.8
2023-02-26T08:13:43.000Z,1.9
2023-02-26T08:14:59.000Z,2
2023-02-26T08:16:15.000Z,2.1
2023-02-26T08:17:31.000Z,2.2
2023-02-26T08:18:47.000Z,2.4
2023-02-26T08:20:03.000Z,2.3
2023-02-26T08:21:19.000Z,2.2
2023-02-26T08:22:35.000Z,2.2
2023-02-26T08:23:51.000Z,2
2023-02-26T08:25:07.000Z,2
2023-02-26T08:26:23.000Z,2
2023-02-26T08:27:39.000Z,2.3
2023-02-26T08:28:56.000Z,2.2
2023-02-26T08:30:12.000Z,2.3
2023-02-26T08:31:28.000Z,2.3
2023-02-26T08:32:44.000Z,2.5
2023-02-26T08:34:00.000Z,2.5
2023-02-26T08:35:17.000Z,2.3
2023-02-26T08:36:33.000Z,2.5
2023-02-26T08:37:49.000Z,2.5
2023-02-26T08:39:04.000Z,2.2
2023-02-26T08:40:20.000Z,2.3
2023-02-26T08:41:37.000Z,2.5
2023-02-26T08:42:53.000Z,2.6
2023-02-26T08:44:09.000Z,2.8
2023-02-26T08:45:25.000Z,3.1
2023-02-26T08:46:41.000Z,3.2
2023-02-26T08:47:57.000Z,2.8
2023-02-26T08:49:14.000Z,2.4
2023-02-26T08:50:30.000Z,2.3
2023-02-26T08:51:46.000Z,2.4
2023-02-26T08:53:02.000Z,2.4
2023-02-26T08:54:18.000Z,2.4
2023-02-26T08:55:34.000Z,2.2
2023-02-26T08:56:50.000Z,2.6
2023-02-26T08:58:06.000Z,2.7
2023-02-26T08:59:22.000Z,2.7
2023-02-26T09:00:38.000Z,2.7
2023-02-26T09:01:55.000Z,2.5
2023-02-26T09:03:11.000Z,2.7
2023-02-26T09:04:27.000Z,2.6
2023-02-26T09:05:43.000Z,2.7
2023-02-26T09:06:59.000Z,2.9
2023-02-26T09:08:16.000Z,2.7
2023-02-26T09:09:32.000Z,3
2023-02-26T09:10:48.000Z,3.2
2023-02-26T09:12:03.000Z,3
2023-02-26T09:13:19.000Z,2.8
2023-02-26T09:14:35.000Z,3
2023-02-26T09:15:52.000Z,3.2
2023-02-26T09:17:08.000Z,3
2023-02-26T09:18:24.000Z,2.9
2023-02-26T09:19:40.000Z,3.2
2023-02-26T09:20:56.000Z,3.4
2023-02-26T09:22:13.000Z,3.2
2023-02-26T09:23:29.000Z,3.1
2023-02-26T09:24:45.000Z,3.1
2023-02-26T09:26:01.000Z,3.4
2023-02-26T09:27:17.000Z,3.3
2023-02-26T09:28:33.000Z,3.5
2023-02-26T09:29:49.000Z,3.9
2023-02-26T09:31:05.000Z,4.3
2023-02-26T09:32:21.000Z,4.2
2023-02-26T09:33:37.000Z,4.4
2023-02-26T09:34:54.000Z,4.6
2023-02-26T09:36:10.000Z,4.4
2023-02-26T09:37:26.000Z,4.5
2023-02-26T09:38:42.000Z,4.1
2023-02-26T09:39:58.000Z,3.9
2023-02-26T09:41:15.000Z,4.4
2023-02-26T09:42:31.000Z,4.6
2023-02-26T09:43:47.000Z,4.4
2023-02-26T09:45:02.000Z,4.5
2023-02-26T09:46:18.000Z,4.3
2023-02-26T09:47:34.000Z,4.1
2023-02-26T09:48:51.000Z,4.5
2023-02-26T09:50:07.000Z,4.7
2023-02-26T09:51:23.000Z,4.5
2023-02-26T09:52:39.000Z,4.3
2023-02-26T09:53:55.000Z,4.3
2023-02-26T09:55:12.000Z,4.4
2023-02-26T09:56:28.000Z,4.5
2023-02-26T09:57:44.000Z,4.7
2023-02-26T09:59:00.000Z,4.4
2023-02-26T10:00:16.000Z,4.1
2023-02-26T10:01:32.000Z,4.4
2023-02-26T10:02:48.000Z,4.6
2023-02-26T10:04:04.000Z,4.6
2023-02-26T10:05:20.000Z,4.9
2023-02-26T10:06:36.000Z,4.9
2023-02-26T10:07:53.000Z,4.3
2023-02-26T10:09:09.000Z,4.7
2023-02-26T10:10:25.000Z,5
2023-02-26T10:11:41.000Z,4.9
2023-02-26T10:12:57.000Z,5.5
2023-02-26T10:14:14.000Z,5.3
2023-02-26T10:15:30.000Z,4.9
2023-02-26T10:16:46.000Z,4.5
2023-02-26T10:18:01.000Z,4.5
2023-02-26T10:19:17.000Z,4.5
2023-02-26T10:20:33.000Z,5
2023-02-26T10:21:50.000Z,5.4
2023-02-26T10:23:06.000Z,6.4
2023-02-26T10:24:22.000Z,6.2
2023-02-26T10:25:38.000Z,6.1
2023-02-26T10:26:54.000Z,5.7
2023-02-26T10:28:11.000Z,5.1
2023-02-26T10:29:27.000Z,4.8
2023-02-26T10:30:43.000Z,4.7
2023-02-26T10:31:59.000Z,5
2023-02-26T10:33:15.000Z,5.2
2023-02-26T10:34:31.000Z,4.8
2023-02-26T10:35:47.000Z,4.3
2023-02-26T10:37:03.000Z,4.5
2023-02-26T10:38:19.000Z,4.3
2023-02-26T10:39:35.000Z,4.6
2023-02-26T10:40:52.000Z,4.8
2023-02-26T10:42:08.000Z,4.5
2023-02-26T10:43:24.000Z,4.4
2023-02-26T10:44:40.000Z,4.9
2023-02-26T10:45:56.000Z,4.7
2023-02-26T10:47:12.000Z,5
2023-02-26T10:48:29.000Z,4.8
2023-02-26T10:49:45.000Z,4.9
2023-02-26T10:51:00.000Z,4.8
2023-02-26T10:52:16.000Z,5
2023-02-26T10:53:32.000Z,4.4
2023-02-26T10:54:49.000Z,4.1
2023-02-26T10:56:05.000Z,4.3
2023-02-26T10:57:21.000Z,4.3
2023-02-26T10:58:37.000Z,4.6
2023-02-26T10:59:53.000Z,4.5
2023-02-26T11:01:10.000Z,5
2023-02-26T11:02:26.000Z,5.1
2023-02-26T11:03:42.000Z,4.7
2023-02-26T11:04:58.000Z,4.8
2023-02-26T11:06:14.000Z,4.4
2023-02-26T11:07:30.000Z,4.3
2023-02-26T11:08:46.000Z,4.9
2023-02-26T11:10:02.000Z,4.5
2023-02-26T11:11:18.000Z,4.7
2023-02-26T11:12:34.000Z,5.2
2023-02-26T11:13:51.000Z,5.7
2023-02-26T11:15:07.000Z,6.3
2023-02-26T11:16:23.000Z,6.4
2023-02-26T11:17:39.000Z,6.9
2023-02-26T11:18:55.000Z,7.5
2023-02-26T11:20:11.000Z,6.4
2023-02-26T11:21:28.000Z,6.8
2023-02-26T11:22:44.000Z,6.6
2023-02-26T11:23:59.000Z,7.2
2023-02-26T11:25:15.000Z,6.6
2023-02-26T11:26:31.000Z,6.9
2023-02-26T11:27:48.000Z,6.1
2023-02-26T11:29:04.000Z,5.8
2023-02-26T11:30:20.000Z,5.5
2023-02-26T11:31:36.000Z,6.3
2023-02-26T11:32:52.000Z,5.8
2023-02-26T11:34:09.000Z,5.9
2023-02-26T11:35:25.000Z,5.5
2023-02-26T11:36:41.000Z,5.8
2023-02-26T11:37:57.000Z,5.7
2023-02-26T11:39:13.000Z,5.4
2023-02-26T11:40:29.000Z,6.1
2023-02-26T11:41:45.000Z,6.2
2023-02-26T11:43:01.000Z,6.5
2023-02-26T11:44:17.000Z,6
2023-02-26T11:45:33.000Z,6.7
2023-02-26T11:46:50.000Z,7.7
2023-02-26T11:48:06.000Z,7.1
2023-02-26T11:49:22.000Z,6.9
2023-02-26T11:50:38.000Z,6.7
2023-02-26T11:51:54.000Z,6.3
2023-02-26T11:53:10.000Z,6.2
2023-02-26T11:54:27.000Z,6.7
2023-02-26T11:55:43.000Z,7.2
2023-02-26T11:56:58.000Z,7.3
2023-02-26T11:58:14.000Z,7.3
2023-02-26T11:59:30.000Z,7.2
2023-02-26T12:00:47.000Z,6.7
2023-02-26T12:02:03.000Z,6.6
2023-02-26T12:03:19.000Z,6.6
2023-02-26T12:04:35.000Z,6
2023-02-26T12:05:51.000Z,6.2
2023-02-26T12:07:08.000Z,6.2
2023-02-26T12:08:24.000Z,7.1
2023-02-26T12:09:40.000Z,6.1
2023-02-26T12:10:56.000Z,6.2
2023-02-26T12:12:12.000Z,6.4
2023-02-26T12:13:28.000Z,6.2
2023-02-26T12:14:44.000Z,6.7
2023-02-26T12:16:00.000Z,7.2
2023-02-26T12:17:16.000Z,7.6
2023-02-26T12:18:32.000Z,8.5
2023-02-26T12:19:48.000Z,8.1
2023-02-26T12:21:05.000Z,8.1
2023-02-26T12:22:21.000Z,7.8
2023-02-26T12:23:37.000Z,7.6
2023-02-26T12:24:53.000Z,7.3
2023-02-26T12:26:09.000Z,6.5
2023-02-26T12:27:26.000Z,7.2
2023-02-26T12:28:42.000Z,7.1
2023-02-26T12:29:57.000Z,7.6
2023-02-26T12:31:13.000Z,9.1
2023-02-26T12:32:29.000Z,10.4
2023-02-26T12:33:46.000Z,10.7
2023-02-26T12:35:02.000Z,10.3
2023-02-26T12:36:18.000Z,9.2
2023-02-26T12:37:33.000Z,9.5
2023-02-26T12:38:49.000Z,10.2
2023-02-26T12:40:06.000Z,10.1
2023-02-26T12:41:22.000Z,9.7
2023-02-26T12:42:38.000Z,10.1
2023-02-26T12:43:54.000Z,9
2023-02-26T12:45:10.000Z,8.4
2023-02-26T12:46:27.000Z,8.6
2023-02-26T12:47:43.000Z,8.8
2023-02-26T12:48:59.000Z,8.3
2023-02-26T12:50:15.000Z,8.8
2023-02-26T12:51:31.000Z,7.6
2023-02-26T12:52:47.000Z,7.2
2023-02-26T12:54:03.000Z,6.9
2023-02-26T12:55:19.000Z,6.9
2023-02-26T12:56:35.000Z,7.2
2023-02-26T12:57:51.000Z,6.4
2023-02-26T12:59:07.000Z,5.8
2023-02-26T13:00:24.000Z,5.9
2023-02-26T13:01:40.000Z,6.2
2023-02-26T13:02:56.000Z,6.2
2023-02-26T13:04:12.000Z,6.1
2023-02-26T13:05:28.000Z,6.2
2023-02-26T13:06:45.000Z,6.5
2023-02-26T13:08:01.000Z,6.6
2023-02-26T13:09:17.000Z,6.9
2023-02-26T13:10:32.000Z,7.7
2023-02-26T13:11:48.000Z,6.4
2023-02-26T13:13:05.000Z,6.7
2023-02-26T13:14:21.000Z,7.1
2023-02-26T13:15:37.000Z,7.5
2023-02-26T13:16:53.000Z,7.6
2023-02-26T13:18:09.000Z,7.5
2023-02-26T13:19:25.000Z,7.6
2023-02-26T13:20:42.000Z,6.5
2023-02-26T13:21:58.000Z,6.8
2023-02-26T13:23:14.000Z,6.9
2023-02-26T13:24:30.000Z,7
2023-02-26T13:25:46.000Z,7.3
2023-02-26T13:27:02.000Z,6.9
2023-02-26T13:28:18.000Z,6.4
2023-02-26T13:29:34.000Z,6.5
2023-02-26T13:30:50.000Z,6.9
2023-02-26T13:32:06.000Z,7.8
2023-02-26T13:33:23.000Z,7.9
2023-02-26T13:34:39.000Z,7.8
2023-02-26T13:35:55.000Z,7.3
2023-02-26T13:37:11.000Z,7.3
2023-02-26T13:38:27.000Z,7.3
2023-02-26T13:39:44.000Z,7.1
2023-02-26T13:41:00.000Z,7.4
2023-02-26T13:42:16.000Z,6.6
2023-02-26T13:43:31.000Z,6.9
2023-02-26T13:44:47.000Z,7
2023-02-26T13:46:04.000Z,6.9
2023-02-26T13:47:20.000Z,6.8
2023-02-26T13:48:36.000Z,6.8
2023-02-26T13:49:52.000Z,7.3
2023-02-26T13:51:08.000Z,7.4
2023-02-26T13:52:24.000Z,6.9
2023-02-26T13:53:41.000Z,6.8
2023-02-26T13:54:57.000Z,6.8
2023-02-26T13:56:13.000Z,7.1
2023-02-26T13:57:29.000Z,7.3
2023-02-26T13:58:45.000Z,7.2
2023-02-26T14:00:01.000Z,7.3
2023-02-26T14:01:17.000Z,7.5
2023-02-26T14:02:33.000Z,7.5
2023-02-26T14:03:49.000Z,7.3
2023-02-26T14:05:05.000Z,7.1
2023-02-26T14:06:22.000Z,6.8
2023-02-26T14:07:38.000Z,6.8
2023-02-26T14:08:54.000Z,7.1
2023-02-26T14:10:10.000Z,7.5
2023-02-26T14:11:26.000Z,7.3
2023-02-26T14:12:42.000Z,7.1
2023-02-26T14:13:59.000Z,7.2
2023-02-26T14:15:15.000Z,7.5
2023-02-26T14:16:30.000Z,8.1
2023-02-26T14:17:46.000Z,7.8
2023-02-26T14:19:02.000Z,7.7
2023-02-26T14:20:19.000Z,7.6
2023-02-26T14:21:35.000Z,7.6
2023-02-26T14:22:51.000Z,7.8
2023-02-26T14:24:07.000Z,8.5
2023-02-26T14:25:23.000Z,8.4
2023-02-26T14:26:40.000Z,8
2023-02-26T14:27:56.000Z,8.3
2023-02-26T14:29:12.000Z,8.4
2023-02-26T14:30:28.000Z,9
2023-02-26T14:31:44.000Z,9.7
2023-02-26T14:33:00.000Z,9
2023-02-26T14:34:16.000Z,8.7
2023-02-26T14:35:32.000Z,8.2
2023-02-26T14:36:48.000Z,8.2
2023-02-26T14:38:04.000Z,8.1
2023-02-26T14:39:20.000Z,7.2
2023-02-26T14:40:37.000Z,7.5
2023-02-26T14:41:53.000Z,7.5
2023-02-26T14:43:09.000Z,7.3
2023-02-26T14:44:25.000Z,7.2
2023-02-26T14:45:41.000Z,6.9
2023-02-26T14:46:58.000Z,7.3
2023-02-26T14:48:14.000Z,7.4
2023-02-26T14:49:29.000Z,7.5
2023-02-26T14:50:45.000Z,6.9
2023-02-26T14:52:01.000Z,6.7
2023-02-26T14:53:18.000Z,6.7
2023-02-26T14:54:34.000Z,7
2023-02-26T14:55:50.000Z,7.3
2023-02-26T14:57:06.000Z,7.3
2023-02-26T14:58:22.000Z,7.7
2023-02-26T14:59:39.000Z,7.4
2023-02-26T15:00:55.000Z,7.7
2023-02-26T15:02:11.000Z,8.3
2023-02-26T15:03:27.000Z,8.4
2023-02-26T15:04:43.000Z,8.2
2023-02-26T15:05:58.000Z,7.2
2023-02-26T15:07:15.000Z,6.9
2023-02-26T15:08:31.000Z,6.7
2023-02-26T15:09:47.000Z,6.7
2023-02-26T15:11:03.000Z,7.2
2023-02-26T15:12:19.000Z,7
2023-02-26T15:13:36.000Z,7.1
2023-02-26T15:14:52.000Z,7.3
2023-02-26T15:16:08.000Z,7.6
2023-02-26T15:17:24.000Z,7.7
2023-02-26T15:18:40.000Z,6.9
2023-02-26T15:19:57.000Z,6.8
2023-02-26T15:21:13.000Z,6.8
2023-02-26T15:22:28.000Z,7
2023-02-26T15:23:44.000Z,7.2
2023-02-26T15:25:00.000Z,7.6
2023-02-26T15:26:17.000Z,7.8
2023-02-26T15:27:33.000Z,8.3
2023-02-26T15:28:49.000Z,8.3
2023-02-26T15:30:05.000Z,7.5
2023-02-26T15:31:21.000Z,7.1
2023-02-26T15:32:37.000Z,7.2
2023-02-26T15:33:54.000Z,7.4
2023-02-26T15:35:10.000Z,7.3
2023-02-26T15:36:26.000Z,7.1
2023-02-26T15:37:42.000Z,6.9
2023-02-26T15:38:57.000Z,6.7
2023-02-26T15:40:14.000Z,6.6
2023-02-26T15:41:30.000Z,6.6
2023-02-26T15:42:46.000Z,6.9
2023-02-26T15:44:02.000Z,7.3
2023-02-26T15:45:18.000Z,7.5
2023-02-26T15:46:35.000Z,7.3
2023-02-26T15:47:51.000Z,7
2023-02-26T15:49:07.000Z,7
2023-02-26T15:50:23.000Z,7
2023-02-26T15:51:39.000Z,7.3
2023-02-26T15:52:56.000Z,7.2
2023-02-26T15:54:12.000Z,7
2023-02-26T15:55:27.000Z,7.1
2023-02-26T15:56:43.000Z,6.7
2023-02-26T15:57:59.000Z,6.5
2023-02-26T15:59:15.000Z,6.8
2023-02-26T16:00:32.000Z,6.9
2023-02-26T16:01:48.000Z,7.3
2023-02-26T16:03:04.000Z,7.7
2023-02-26T16:04:20.000Z,8.1
2023-02-26T16:05:36.000Z,7.2
2023-02-26T16:06:53.000Z,7
2023-02-26T16:08:09.000Z,7.5
2023-02-26T16:09:25.000Z,7.6
2023-02-26T16:10:41.000Z,7.6
2023-02-26T16:11:56.000Z,6.9
2023-02-26T16:13:13.000Z,6.6
2023-02-26T16:14:29.000Z,6.8
2023-02-26T16:15:45.000Z,6.9
2023-02-26T16:17:01.000Z,6.9
2023-02-26T16:18:17.000Z,7
2023-02-26T16:19:34.000Z,6.9
2023-02-26T16:20:50.000Z,6.6
2023-02-26T16:22:06.000Z,6.5
2023-02-26T16:23:22.000Z,6.4
2023-02-26T16:24:38.000Z,6.3
2023-02-26T16:25:54.000Z,6.2
2023-02-26T16:27:11.000Z,6.3
2023-02-26T16:28:26.000Z,6.8
2023-02-26T16:29:42.000Z,7.1
2023-02-26T16:30:58.000Z,7.3
2023-02-26T16:32:14.000Z,7.2
2023-02-26T16:33:31.000Z,6.8
2023-02-26T16:34:47.000Z,6.9
2023-02-26T16:36:03.000Z,6.7
2023-02-26T16:37:19.000Z,6.7
2023-02-26T16:38:35.000Z,6.7
2023-02-26T16:39:52.000Z,6.7
2023-02-26T16:41:08.000Z,6.5
2023-02-26T16:42:24.000Z,6.3
2023-02-26T16:43:40.000Z,6.2
2023-02-26T16:44:55.000Z,6.5
2023-02-26T16:46:12.000Z,6.3
2023-02-26T16:47:28.000Z,6
2023-02-26T16:48:44.000Z,5.8
2023-02-26T16:50:00.000Z,5.6
2023-02-26T16:51:16.000Z,5.6
2023-02-26T16:52:31.000Z,5.7
2023-02-26T16:53:48.000Z,5.7
2023-02-26T16:55:04.000Z,5.8
2023-02-26T16:56:20.000Z,5.8
2023-02-26T16:57:36.000Z,5.7
2023-02-26T16:58:52.000Z,5.8
2023-02-26T17:00:09.000Z,5.9
2023-02-26T17:01:25.000Z,5.9
2023-02-26T17:02:41.000Z,5.9
2023-02-26T17:03:57.000Z,6
2023-02-26T17:05:13.000Z,6.1
2023-02-26T17:06:30.000Z,6.1
2023-02-26T17:07:46.000Z,6.1
2023-02-26T17:09:01.000Z,6
2023-02-26T17:10:17.000Z,5.6
2023-02-26T17:11:33.000Z,5.7
2023-02-26T17:12:50.000Z,5.6
2023-02-26T17:14:06.000Z,5.7
2023-02-26T17:15:22.000Z,5.8
2023-02-26T17:16:38.000Z,5.7
2023-02-26T17:17:54.000Z,5.6
2023-02-26T17:19:10.000Z,5.5
2023-02-26T17:20:27.000Z,5.6
2023-02-26T17:21:43.000Z,5.6
2023-02-26T17:22:59.000Z,5.9
2023-02-26T17:24:15.000Z,5.8
2023-02-26T17:25:30.000Z,5.6
2023-02-26T17:26:47.000Z,5.6
2023-02-26T17:28:03.000Z,5.6
2023-02-26T17:29:19.000Z,5.7
2023-02-26T17:30:35.000Z,5.6
2023-02-26T17:31:51.000Z,5.6
2023-02-26T17:33:08.000Z,5.6
2023-02-26T17:34:24.000Z,5.6
2023-02-26T17:35:40.000Z,5.7
2023-02-26T17:36:56.000Z,5.7